createdAt,value
2022-11-03T17:27:32.819Z,10.87
2022-11-03T17:28:33.022Z,10.87
2022-11-03T17:29:33.389Z,10.88
2022-11-03T17:30:33.641Z,10.88
2022-11-03T17:31:34.470Z,10.88
2022-11-03T17:32:35.028Z,10.89
2022-11-03T17:33:36.534Z,10.89
2022-11-03T17:34:35.843Z,10.90
2022-11-03T17:35:40.157Z,10.90
2022-11-03T17:36:36.264Z,10.90
2022-11-03T17:37:38.552Z,10.91
2022-11-03T17:38:37.281Z,10.91
2022-11-03T17:39:39.664Z,10.91
2022-11-03T17:40:38.068Z,10.90
2022-11-03T17:41:38.288Z,10.90
2022-11-03T17:42:41.138Z,10.90
2022-11-03T17:43:38.841Z,10.89
2022-11-03T17:44:38.995Z,10.89
2022-11-03T17:45:40.050Z,10.89
2022-11-03T17:46:40.621Z,10.89
2022-11-03T17:47:02.143Z,10.86
2022-11-03T17:48:01.119Z,10.86
2022-11-03T17:49:02.069Z,10.86
2022-11-03T17:50:02.365Z,10.86
2022-11-03T17:51:03.325Z,10.86
2022-11-03T17:52:04.284Z,10.86
2022-11-03T17:53:04.954Z,10.86
2022-11-03T17:54:04.709Z,10.87
2022-11-03T17:55:04.978Z,10.87
2022-11-03T17:56:35.479Z,10.88
2022-11-03T17:57:05.961Z,10.89
2022-11-03T17:58:06.747Z,10.89
2022-11-03T17:59:07.178Z,10.89
2022-11-03T18:00:08.227Z,10.90
2022-11-03T18:01:09.131Z,10.90
2022-11-03T18:02:09.834Z,10.90
2022-11-03T18:03:12.682Z,10.90
2022-11-03T18:04:11.102Z,10.91
2022-11-03T18:05:15.295Z,10.91
2022-11-03T18:06:11.862Z,10.91
2022-11-03T18:07:12.836Z,10.92
2022-11-03T18:08:13.497Z,10.92
2022-11-03T18:09:14.199Z,10.92
2022-11-03T18:09:28.566Z,10.96
2022-11-03T18:10:29.314Z,10.96
2022-11-03T18:11:29.742Z,10.96
2022-11-03T18:12:30.492Z,10.95
2022-11-03T18:13:34.192Z,10.95
2022-11-03T18:14:31.350Z,10.95
2022-11-03T18:15:31.767Z,10.95
2022-11-03T18:16:34.793Z,10.95
2022-11-03T18:17:33.772Z,10.95
2022-11-03T18:18:34.199Z,10.95
2022-11-03T18:19:34.743Z,10.94
2022-11-03T18:20:36.598Z,10.94
2022-11-03T18:21:36.904Z,10.94
2022-11-03T18:22:39.092Z,10.93
2022-11-03T18:23:36.313Z,10.93
2022-11-03T18:24:37.236Z,10.93
2022-11-03T18:25:38.029Z,10.92
2022-11-03T18:26:38.244Z,10.92
2022-11-03T18:27:48.277Z,10.82
2022-11-03T18:28:48.523Z,10.82
2022-11-03T18:29:49.382Z,10.82
2022-11-03T18:30:50.075Z,10.82
2022-11-03T18:31:50.877Z,10.82
2022-11-03T18:32:50.889Z,10.83
2022-11-03T18:33:51.017Z,10.83
2022-11-03T18:34:51.483Z,10.83
2022-11-03T18:35:52.266Z,10.83
2022-11-03T18:36:53.356Z,10.83
2022-11-03T18:37:53.941Z,10.83
2022-11-03T18:39:00.945Z,10.83
2022-11-03T18:39:54.660Z,10.84
2022-11-03T18:40:54.883Z,10.84
2022-11-03T18:41:55.746Z,10.84
2022-11-03T18:42:56.519Z,10.85
2022-11-03T18:43:57.367Z,10.86
2022-11-03T18:45:03.282Z,10.86
2022-11-03T18:46:07.171Z,10.87
2022-11-03T18:46:59.447Z,10.88
2022-11-03T18:48:00.226Z,10.89
2022-11-03T18:49:00.406Z,10.89
2022-11-03T18:50:02.207Z,10.90
2022-11-03T18:50:28.763Z,10.96
2022-11-03T18:51:26.007Z,10.95
2022-11-03T18:52:26.127Z,10.95
2022-11-03T18:53:28.672Z,10.95
2022-11-03T18:54:29.470Z,10.95
2022-11-03T18:55:27.512Z,10.95
2022-11-03T18:56:27.706Z,10.94
2022-11-03T18:57:28.525Z,10.94
2022-11-03T18:58:29.407Z,10.94
2022-11-03T18:59:32.862Z,10.94
2022-11-03T19:00:30.609Z,10.93
2022-11-03T19:01:33.879Z,10.93
2022-11-03T19:02:32.364Z,10.93
2022-11-03T19:03:33.091Z,10.92
2022-11-03T19:04:34.013Z,10.92
2022-11-03T19:05:34.644Z,10.91
2022-11-03T19:06:34.870Z,10.91
2022-11-03T19:07:34.995Z,10.91
2022-11-03T19:08:35.460Z,10.90
2022-11-03T19:09:35.549Z,10.90
2022-11-03T19:10:36.178Z,10.90
2022-11-03T19:11:36.956Z,10.89
2022-11-03T19:12:39.136Z,10.89
2022-11-03T19:13:40.604Z,10.89
2022-11-03T19:13:57.311Z,10.82
2022-11-03T19:14:57.706Z,10.82
2022-11-03T19:15:59.474Z,10.82
2022-11-03T19:17:21.815Z,10.82
2022-11-03T19:18:01.572Z,10.82
2022-11-03T19:18:59.047Z,10.82
2022-11-03T19:19:59.957Z,10.82
2022-11-03T19:21:01.307Z,10.82
2022-11-03T19:22:00.221Z,10.82
2022-11-03T19:23:01.037Z,10.82
2022-11-03T19:24:01.112Z,10.82
2022-11-03T19:25:01.584Z,10.81
2022-11-03T19:26:02.279Z,10.81
2022-11-03T19:27:02.779Z,10.81
2022-11-03T19:28:05.452Z,10.81
2022-11-03T19:29:04.598Z,10.81
2022-11-03T19:30:04.359Z,10.81
2022-11-03T19:31:05.329Z,10.81
2022-11-03T19:32:05.693Z,10.81
2022-11-03T19:33:06.374Z,10.81
2022-11-03T19:34:06.855Z,10.81
2022-11-03T19:35:08.361Z,10.82
2022-11-03T19:36:07.373Z,10.82
2022-11-03T19:37:07.800Z,10.82
2022-11-03T19:38:09.567Z,10.82
2022-11-03T19:38:18.527Z,10.84
2022-11-03T19:39:19.275Z,10.84
2022-11-03T19:40:19.888Z,10.84
2022-11-03T19:41:20.875Z,10.85
2022-11-03T19:42:22.891Z,10.85
2022-11-03T19:43:22.910Z,10.85
2022-11-03T19:44:24.962Z,10.84
2022-11-03T19:45:24.414Z,10.84
2022-11-03T19:46:25.282Z,10.84
2022-11-03T19:47:28.400Z,10.84
2022-11-03T19:48:26.432Z,10.84
2022-11-03T19:49:26.310Z,10.84
2022-11-03T19:50:26.368Z,10.84
2022-11-03T19:51:26.667Z,10.84
2022-11-03T19:52:26.836Z,10.84
2022-11-03T19:53:27.198Z,10.84
2022-11-03T19:54:27.715Z,10.84
2022-11-03T19:55:28.276Z,10.84
2022-11-03T19:56:28.839Z,10.84
2022-11-03T19:57:29.221Z,10.84
2022-11-03T19:58:29.363Z,10.84
2022-11-03T19:59:30.053Z,10.84
2022-11-03T20:00:30.936Z,10.84
2022-11-03T20:01:30.998Z,10.84
2022-11-03T20:02:31.734Z,10.83
2022-11-03T20:03:31.741Z,10.82
2022-11-03T20:04:33.101Z,10.82
2022-11-03T20:05:33.745Z,10.81
2022-11-03T20:06:33.925Z,10.80
2022-11-03T20:06:44.657Z,10.65
2022-11-03T20:07:44.473Z,10.65
2022-11-03T20:08:46.383Z,10.65
2022-11-03T20:09:46.952Z,10.65
2022-11-03T20:10:47.336Z,10.65
2022-11-03T20:11:46.834Z,10.64
2022-11-03T20:12:47.314Z,10.64
2022-11-03T20:13:48.926Z,10.63
2022-11-03T20:14:49.204Z,10.63
2022-11-03T20:15:49.907Z,10.62
2022-11-03T20:16:49.776Z,10.62
2022-11-03T20:17:51.508Z,10.61
2022-11-03T20:18:51.651Z,10.61
2022-11-03T20:19:51.124Z,10.61
2022-11-03T20:20:51.827Z,10.61
2022-11-03T20:21:52.709Z,10.60
2022-11-03T20:22:54.449Z,10.61
2022-11-03T20:23:54.106Z,10.61
2022-11-03T20:24:54.156Z,10.61
2022-11-03T20:25:54.349Z,10.61
2022-11-03T20:26:03.476Z,10.62
2022-11-03T20:27:04.335Z,10.62
2022-11-03T20:28:06.400Z,10.62
2022-11-03T20:29:06.668Z,10.62
2022-11-03T20:30:07.000Z,10.62
2022-11-03T20:31:07.700Z,10.62
2022-11-03T20:32:07.701Z,10.62
2022-11-03T20:33:08.116Z,10.61
2022-11-03T20:34:08.774Z,10.61
2022-11-03T20:35:09.548Z,10.61
2022-11-03T20:36:11.288Z,10.61
2022-11-03T20:37:11.069Z,10.62
2022-11-03T20:38:12.243Z,10.62
2022-11-03T20:39:12.794Z,10.63
2022-11-03T20:40:13.497Z,10.64
2022-11-03T20:41:14.081Z,10.64
2022-11-03T20:42:18.612Z,10.66
2022-11-03T20:43:15.123Z,10.67
2022-11-03T20:44:14.490Z,10.69
2022-11-03T20:45:14.956Z,10.71
2022-11-03T20:46:16.611Z,10.72
2022-11-03T20:47:16.307Z,10.74
2022-11-03T20:48:16.615Z,10.75
2022-11-03T20:48:27.860Z,10.95
2022-11-03T20:49:27.111Z,10.95
2022-11-03T20:50:28.921Z,10.94
2022-11-03T20:51:28.250Z,10.94
2022-11-03T20:52:29.957Z,10.94
2022-11-03T20:53:31.821Z,10.93
2022-11-03T20:54:29.884Z,10.93
2022-11-03T20:55:29.924Z,10.93
2022-11-03T20:56:30.125Z,10.93
2022-11-03T20:57:31.216Z,10.92
2022-11-03T20:58:32.185Z,10.92
2022-11-03T20:59:33.328Z,10.92
2022-11-03T21:00:32.909Z,10.92
2022-11-03T21:01:33.490Z,10.91
2022-11-03T21:02:33.959Z,10.91
2022-11-03T21:04:34.600Z,10.90
2022-11-03T21:05:36.569Z,10.90
2022-11-03T21:06:36.315Z,10.89
2022-11-03T21:07:37.383Z,10.89
2022-11-03T21:08:38.213Z,10.88
2022-11-03T21:09:37.965Z,10.88
2022-11-03T21:10:38.109Z,10.87
2022-11-03T21:11:39.150Z,10.87
2022-11-03T21:12:39.816Z,10.86
2022-11-03T21:12:52.120Z,10.78
2022-11-03T21:13:52.291Z,10.78
2022-11-03T21:14:52.448Z,10.78
2022-11-03T21:16:22.484Z,10.78
2022-11-03T21:16:53.541Z,10.78
2022-11-03T21:17:53.626Z,10.77
2022-11-03T21:18:55.430Z,10.77
2022-11-03T21:19:54.843Z,10.77
2022-11-03T21:20:56.562Z,10.77
2022-11-03T21:21:56.689Z,10.76
2022-11-03T21:22:56.138Z,10.76
2022-11-03T21:23:56.841Z,10.76
2022-11-03T21:24:57.469Z,10.76
2022-11-03T21:25:57.662Z,10.76
2022-11-03T21:26:58.762Z,10.76
2022-11-03T21:27:59.430Z,10.76
2022-11-03T21:29:00.047Z,10.76
2022-11-03T21:30:00.594Z,10.76
2022-11-03T21:30:59.562Z,10.75
2022-11-03T21:31:59.944Z,10.75
2022-11-03T21:33:00.696Z,10.75
2022-11-03T21:34:00.976Z,10.75
2022-11-03T21:35:01.094Z,10.74
2022-11-03T21:36:01.185Z,10.74
2022-11-03T21:36:15.174Z,10.68
2022-11-03T21:37:16.026Z,10.68
2022-11-03T21:38:17.999Z,10.68
2022-11-03T21:39:17.598Z,10.68
2022-11-03T21:40:19.365Z,10.68
2022-11-03T21:41:19.340Z,10.68
2022-11-03T21:42:19.924Z,10.68
2022-11-03T21:43:20.092Z,10.68
2022-11-03T21:44:20.862Z,10.67
2022-11-03T21:45:22.537Z,10.67
2022-11-03T21:46:22.031Z,10.67
2022-11-03T21:47:22.352Z,10.67
2022-11-03T21:48:23.642Z,10.67
2022-11-03T21:49:23.780Z,10.67
2022-11-03T21:50:25.647Z,10.66
2022-11-03T21:51:26.332Z,10.66
2022-11-03T21:52:26.465Z,10.67
2022-11-03T21:53:26.821Z,10.67
2022-11-03T21:54:27.496Z,10.67
2022-11-03T21:55:27.485Z,10.67
2022-11-03T21:56:28.250Z,10.67
2022-11-03T21:57:29.143Z,10.68
2022-11-03T21:58:30.138Z,10.68
2022-11-03T21:59:30.612Z,10.68
2022-11-03T22:00:31.908Z,10.69
2022-11-03T22:01:31.435Z,10.69
2022-11-03T22:02:31.447Z,10.69
2022-11-03T22:03:31.479Z,10.69
2022-11-03T22:03:41.384Z,10.74
2022-11-03T22:04:42.000Z,10.74
2022-11-03T22:05:42.032Z,10.74
2022-11-03T22:06:44.060Z,10.74
2022-11-03T22:07:43.531Z,10.74
2022-11-03T22:08:43.633Z,10.74
2022-11-03T22:09:44.271Z,10.74
2022-11-03T22:10:44.848Z,10.74
2022-11-03T22:11:45.442Z,10.74
2022-11-03T22:12:47.273Z,10.74
2022-11-03T22:13:47.675Z,10.74
2022-11-03T22:14:47.976Z,10.74
2022-11-03T22:15:47.971Z,10.74
2022-11-03T22:16:48.007Z,10.74
2022-11-03T22:17:48.762Z,10.74
2022-11-03T22:18:49.093Z,10.74
2022-11-03T22:19:49.189Z,10.74
2022-11-03T22:20:50.909Z,10.75
2022-11-03T22:21:50.058Z,10.75
2022-11-03T22:22:51.159Z,10.75
2022-11-03T22:23:51.781Z,10.75
2022-11-03T22:24:51.805Z,10.76
2022-11-03T22:25:52.697Z,10.76
2022-11-03T22:26:03.093Z,10.77
2022-11-03T22:27:03.318Z,10.77
2022-11-03T22:28:06.090Z,10.77
2022-11-03T22:29:04.603Z,10.77
2022-11-03T22:30:04.981Z,10.76
2022-11-03T22:31:05.907Z,10.76
2022-11-03T22:32:06.987Z,10.77
2022-11-03T22:33:07.947Z,10.77
2022-11-03T22:34:08.184Z,10.77
2022-11-03T22:35:09.310Z,10.78
2022-11-03T22:36:09.592Z,10.78
2022-11-03T22:37:10.184Z,10.80
2022-11-03T22:38:11.147Z,10.81
2022-11-03T22:39:10.837Z,10.82
2022-11-03T22:40:11.556Z,10.83
2022-11-03T22:41:11.947Z,10.84
2022-11-03T22:42:13.063Z,10.85
2022-11-03T22:43:13.766Z,10.86
2022-11-03T22:43:22.938Z,11.01
2022-11-03T22:44:24.534Z,11.00
2022-11-03T22:45:25.388Z,11.01
2022-11-03T22:46:25.924Z,11.01
2022-11-03T22:47:26.706Z,11.01
2022-11-03T22:48:26.255Z,11.01
2022-11-03T22:49:26.921Z,11.00
2022-11-03T22:50:28.751Z,11.00
2022-11-03T22:51:28.345Z,11.00
2022-11-03T22:52:30.334Z,11.00
2022-11-03T22:53:29.881Z,11.01
2022-11-03T22:54:31.781Z,11.01
2022-11-03T22:55:32.420Z,11.01
2022-11-03T22:56:31.925Z,11.01
2022-11-03T22:57:33.548Z,11.02
2022-11-03T22:58:34.279Z,11.02
2022-11-03T22:59:34.815Z,11.02
2022-11-03T23:00:34.090Z,11.02
2022-11-03T23:01:35.515Z,11.03
2022-11-03T23:02:34.597Z,11.03
2022-11-03T23:03:35.135Z,11.03
2022-11-03T23:04:35.860Z,11.03
2022-11-03T23:04:44.649Z,11.07
2022-11-03T23:05:46.522Z,11.07
2022-11-03T23:06:46.232Z,11.07
2022-11-03T23:07:46.736Z,11.07
2022-11-03T23:08:47.268Z,11.07
2022-11-03T23:09:48.167Z,11.06
2022-11-03T23:10:49.925Z,11.06
2022-11-03T23:11:50.553Z,11.05
2022-11-03T23:12:51.049Z,11.05
2022-11-03T23:13:51.347Z,11.04
2022-11-03T23:14:52.374Z,11.04
2022-11-03T23:15:51.895Z,11.03
2022-11-03T23:16:53.484Z,11.03
2022-11-03T23:17:52.758Z,11.02
2022-11-03T23:18:54.407Z,11.01
2022-11-03T23:19:54.324Z,11.01
2022-11-03T23:20:54.773Z,11.00
2022-11-03T23:21:54.949Z,11.00
2022-11-03T23:22:55.601Z,10.99
2022-11-03T23:23:57.433Z,10.98
2022-11-03T23:24:56.266Z,10.98
2022-11-03T23:25:57.329Z,10.97
2022-11-03T23:26:57.435Z,10.97
2022-11-03T23:27:56.650Z,10.96
2022-11-03T23:28:57.101Z,10.96
2022-11-03T23:29:06.870Z,10.89
2022-11-03T23:30:06.786Z,10.89
2022-11-03T23:31:07.807Z,10.89
2022-11-03T23:32:09.445Z,10.90
2022-11-03T23:33:10.558Z,10.91
2022-11-03T23:34:10.326Z,10.91
2022-11-03T23:35:11.203Z,10.92
2022-11-03T23:36:13.106Z,10.93
2022-11-03T23:37:13.581Z,10.93
2022-11-03T23:38:14.293Z,10.94
2022-11-03T23:39:15.148Z,10.94
2022-11-03T23:40:17.308Z,10.94
2022-11-03T23:41:14.797Z,10.94
2022-11-03T23:42:16.806Z,10.94
2022-11-03T23:43:17.361Z,10.94
2022-11-03T23:44:17.995Z,10.94
2022-11-03T23:45:17.855Z,10.94
2022-11-03T23:46:19.424Z,10.94
2022-11-03T23:47:18.946Z,10.93
2022-11-03T23:48:20.631Z,10.93
2022-11-03T23:49:20.778Z,10.92
2022-11-03T23:50:20.728Z,10.92
2022-11-03T23:50:29.370Z,10.87
2022-11-03T23:51:30.892Z,10.87
2022-11-03T23:52:31.336Z,10.87
2022-11-03T23:53:32.102Z,10.87
2022-11-03T23:54:33.052Z,10.86
2022-11-03T23:55:33.686Z,10.86
2022-11-03T23:56:33.320Z,10.86
2022-11-03T23:57:35.206Z,10.86
2022-11-03T23:58:35.444Z,10.85
2022-11-03T23:59:35.169Z,10.86
